Time;durP1;ratioP1;P1;durP2;ratioP2;P2;SDS_P1;SDS_P2;PMS_P1;PMS_P2;Temp;Humidity;BMP_temperature;BMP_pressure;BME280_temperature;BME280_humidity;BME280_pressure;Samples;Min_cycle;Max_cycle;Signal;HPM_P1;HPM_P2
2021/01/23 00:02:09;;;;;;;4.50;4.10;;;0.40;99.90;;;;;;5107693;28;20088;-79
2021/01/23 00:04:38;;;;;;;5.40;4.90;;;0.40;99.90;;;;;;5106487;28;20409;-78
2021/01/23 00:07:04;;;;;;;5.75;5.15;;;0.40;99.90;;;;;;5105809;28;20538;-78
2021/01/23 00:09:31;;;;;;;5.90;5.30;;;0.50;99.90;;;;;;5106059;28;20128;-79
2021/01/23 00:11:58;;;;;;;7.30;6.05;;;0.40;99.90;;;;;;5106551;28;20051;-78
2021/01/23 00:14:28;;;;;;;7.78;5.03;;;0.50;99.90;;;;;;5106174;28;20051;-78
2021/01/23 00:16:57;;;;;;;5.93;5.30;;;0.40;99.90;;;;;;5105655;28;20109;-78
2021/01/23 00:19:24;;;;;;;6.03;5.40;;;0.50;99.90;;;;;;5107115;28;20036;-79
2021/01/23 00:21:53;;;;;;;6.22;5.47;;;0.40;99.90;;;;;;5105257;28;20051;-80
2021/01/23 00:24:20;;;;;;;6.20;5.53;;;0.50;99.90;;;;;;5106059;28;20127;-77
2021/01/23 00:26:46;;;;;;;9.20;5.90;;;0.50;99.90;;;;;;5104894;28;20052;-78
2021/01/23 00:29:14;;;;;;;7.55;5.22;;;0.50;99.90;;;;;;5105897;28;20130;-78
2021/01/23 00:31:43;;;;;;;7.00;5.35;;;0.50;99.90;;;;;;5106704;28;20151;-77
2021/01/23 00:34:11;;;;;;;5.63;4.85;;;0.40;99.90;;;;;;5106062;28;20113;-78
2021/01/23 00:36:38;;;;;;;6.50;4.70;;;0.50;99.90;;;;;;5105619;28;20127;-78
2021/01/23 00:39:06;;;;;;;4.82;4.30;;;0.50;99.90;;;;;;5107064;28;20130;-78
2021/01/23 00:41:37;;;;;;;7.03;4.75;;;0.50;99.90;;;;;;5105564;28;20054;-78
2021/01/23 00:44:08;;;;;;;4.93;4.43;;;0.50;99.90;;;;;;5088835;28;20127;-78
2021/01/23 00:46:41;;;;;;;7.47;4.45;;;0.50;99.90;;;;;;5106688;28;20052;-78
2021/01/23 00:49:10;;;;;;;5.25;4.35;;;0.50;99.90;;;;;;5106522;28;20047;-78
2021/01/23 00:51:36;;;;;;;5.25;4.72;;;0.50;99.90;;;;;;5105880;28;20075;-78
2021/01/23 00:54:04;;;;;;;6.20;4.70;;;0.50;99.90;;;;;;5096688;28;20561;-78
2021/01/23 00:56:33;;;;;;;6.13;4.70;;;0.50;99.90;;;;;;5101044;28;20665;-79
2021/01/23 00:58:59;;;;;;;7.15;5.53;;;0.50;99.90;;;;;;5105588;28;20134;-78
2021/01/23 01:01:28;;;;;;;8.55;5.53;;;0.50;99.90;;;;;;5104551;28;20203;-79
2021/01/23 01:03:57;;;;;;;6.03;5.43;;;0.50;99.90;;;;;;5106272;27;20040;-76
2021/01/23 01:06:24;;;;;;;6.75;5.47;;;0.50;99.90;;;;;;5104864;28;20582;-76
2021/01/23 01:08:51;;;;;;;5.40;4.70;;;0.50;99.90;;;;;;5106597;28;20074;-78
2021/01/23 01:11:17;;;;;;;7.35;5.50;;;0.50;99.90;;;;;;5103865;28;20100;-77
2021/01/23 01:13:44;;;;;;;6.97;5.38;;;0.50;99.90;;;;;;5106329;28;20040;-78
2021/01/23 01:16:10;;;;;;;5.78;5.10;;;0.50;99.90;;;;;;5105724;28;20308;-78
2021/01/23 01:18:37;;;;;;;8.80;5.45;;;0.50;99.90;;;;;;5106053;28;20514;-78
2021/01/23 01:21:04;;;;;;;6.10;4.55;;;0.50;99.90;;;;;;5104250;28;20108;-78
2021/01/23 01:23:31;;;;;;;6.20;5.00;;;0.50;99.90;;;;;;5099517;28;20043;-78
2021/01/23 01:25:57;;;;;;;8.32;5.22;;;0.50;99.90;;;;;;5103815;28;20045;-78
2021/01/23 01:28:23;;;;;;;5.68;4.90;;;0.50;99.90;;;;;;5104204;28;20118;-78
2021/01/23 01:30:52;;;;;;;6.68;5.00;;;0.50;99.90;;;;;;5105361;28;20043;-78
2021/01/23 01:33:22;;;;;;;6.30;5.10;;;0.50;99.90;;;;;;5106557;28;20105;-79
2021/01/23 01:35:50;;;;;;;6.38;4.85;;;0.50;99.90;;;;;;5105203;28;20198;-78
2021/01/23 01:38:17;;;;;;;5.70;4.28;;;0.60;99.90;;;;;;5104975;28;20444;-78
2021/01/23 01:40:43;;;;;;;5.43;4.38;;;0.60;99.90;;;;;;5103759;28;20075;-79
2021/01/23 01:43:09;;;;;;;4.05;3.65;;;0.60;99.90;;;;;;5103661;28;20202;-78
2021/01/23 01:45:36;;;;;;;4.30;3.40;;;0.60;99.90;;;;;;5104469;28;20440;-79
2021/01/23 01:48:06;;;;;;;7.00;3.10;;;0.60;99.90;;;;;;5106056;28;20451;-78
2021/01/23 01:50:33;;;;;;;4.88;2.67;;;0.60;99.90;;;;;;5103295;28;20465;-79
2021/01/23 01:53:02;;;;;;;2.72;2.53;;;0.60;99.90;;;;;;5104652;28;20122;-78
2021/01/23 01:55:35;;;;;;;2.70;2.50;;;0.60;99.90;;;;;;5092121;28;20044;-79
2021/01/23 01:58:02;;;;;;;2.90;2.70;;;0.60;99.90;;;;;;5098322;28;20100;-78
2021/01/23 02:00:30;;;;;;;2.72;2.50;;;0.60;99.90;;;;;;5104022;28;20036;-79
2021/01/23 02:03:16;;;;;;;6.22;2.72;;;0.60;99.90;;;;;;5105766;28;20040;-79
2021/01/23 02:05:54;;;;;;;3.95;3.40;;;0.60;99.90;;;;;;5103851;28;20498;-78
2021/01/23 02:08:32;;;;;;;4.30;3.67;;;0.60;99.90;;;;;;5104927;28;20130;-78
2021/01/23 02:11:13;;;;;;;10.52;3.83;;;0.60;99.90;;;;;;5104651;28;20123;-78
2021/01/23 02:13:45;;;;;;;4.53;3.83;;;0.60;99.90;;;;;;5096972;28;20045;-78
2021/01/23 02:16:21;;;;;;;4.95;4.45;;;0.60;99.90;;;;;;5104824;28;20376;-79
2021/01/23 02:19:17;;;;;;;6.28;4.45;;;0.60;99.90;;;;;;5105321;28;20251;-79
2021/01/23 02:22:28;;;;;;;8.18;4.28;;;0.60;99.90;;;;;;5090285;28;20130;-79
2021/01/23 02:24:56;;;;;;;5.32;4.40;;;0.60;99.90;;;;;;5104405;28;20087;-78
2021/01/23 02:27:34;;;;;;;5.97;4.75;;;0.60;99.90;;;;;;5104744;28;20067;-78
2021/01/23 02:30:30;;;;;;;8.13;4.60;;;0.60;99.90;;;;;;5105043;28;20075;-78
2021/01/23 02:33:00;;;;;;;4.72;4.18;;;0.50;99.90;;;;;;5103783;28;20071;-77
2021/01/23 02:35:28;;;;;;;7.78;4.13;;;0.60;99.90;;;;;;5103770;28;20054;-78
2021/01/23 02:37:54;;;;;;;5.72;4.32;;;0.60;99.90;;;;;;5105879;28;20083;-77
2021/01/23 02:40:22;;;;;;;4.85;4.00;;;0.60;99.90;;;;;;5102125;28;20131;-77
2021/01/23 02:42:49;;;;;;;8.13;4.78;;;0.60;99.90;;;;;;5104946;28;20079;-76
2021/01/23 02:45:15;;;;;;;7.05;6.05;;;0.60;99.90;;;;;;5102729;28;20079;-76
2021/01/23 02:47:46;;;;;;;11.73;7.03;;;0.60;99.90;;;;;;5097720;28;20055;-76
2021/01/23 02:50:13;;;;;;;11.77;7.15;;;0.50;99.90;;;;;;5095628;28;20044;-75
2021/01/23 02:53:04;;;;;;;9.93;6.35;;;0.50;99.90;;;;;;5103630;28;20096;-76
2021/01/23 02:55:33;;;;;;;9.93;6.00;;;0.50;99.90;;;;;;5102224;28;20569;-76
2021/01/23 02:58:03;;;;;;;6.43;4.88;;;0.50;99.90;;;;;;5106290;28;20199;-75
2021/01/23 03:00:31;;;;;;;7.95;4.47;;;0.60;99.90;;;;;;5107578;28;20047;-76
2021/01/23 03:03:01;;;;;;;5.45;4.30;;;0.60;99.90;;;;;;5108656;28;20131;-75
2021/01/23 03:05:35;;;;;;;6.65;4.50;;;0.60;99.90;;;;;;5107535;28;20048;-75
2021/01/23 03:08:02;;;;;;;;;;;0.50;99.90;;;;;;5109028;28;20036;-75
2021/01/23 03:10:40;;;;;;;8.38;5.63;;;0.60;99.90;;;;;;5107497;28;19994;-75
2021/01/23 03:13:08;;;;;;;8.32;6.05;;;0.50;99.90;;;;;;5120201;27;20113;-76
2021/01/23 03:15:38;;;;;;;9.00;6.38;;;0.50;99.90;;;;;;5098314;28;20066;-75
2021/01/23 03:18:06;;;;;;;11.85;5.88;;;0.60;99.90;;;;;;5108409;28;20545;-75
2021/01/23 03:20:35;;;;;;;8.95;5.97;;;0.50;99.90;;;;;;5107522;28;20577;-75
2021/01/23 03:23:02;;;;;;;10.25;5.82;;;0.50;99.90;;;;;;5092446;28;20044;-75
2021/01/23 03:25:29;;;;;;;7.68;5.63;;;0.50;99.90;;;;;;5106951;28;20407;-76
2021/01/23 03:27:57;;;;;;;7.30;5.22;;;0.50;99.90;;;;;;5108113;28;20071;-76
2021/01/23 03:30:24;;;;;;;7.85;5.47;;;0.50;99.90;;;;;;5108066;28;20127;-76
2021/01/23 03:32:52;;;;;;;5.95;4.60;;;0.50;99.90;;;;;;5107049;28;20179;-76
2021/01/23 03:35:20;;;;;;;6.32;4.68;;;0.50;99.90;;;;;;5107283;28;20646;-76
2021/01/23 03:37:52;;;;;;;7.00;5.15;;;0.50;99.90;;;;;;5107063;28;20547;-75
2021/01/23 03:40:18;;;;;;;;;;;0.50;99.90;;;;;;5107849;28;20051;-76
2021/01/23 03:42:46;;;;;;;5.65;4.22;;;0.50;99.90;;;;;;5107767;28;19939;-76
2021/01/23 03:45:13;;;;;;;6.15;4.10;;;0.50;99.90;;;;;;5107913;28;20123;-76
2021/01/23 03:47:39;;;;;;;8.75;5.35;;;0.50;99.90;;;;;;5108058;28;20478;-76
2021/01/23 03:50:08;;;;;;;7.07;4.97;;;0.60;99.90;;;;;;5106959;27;20051;-76
2021/01/23 03:52:36;;;;;;;7.13;5.10;;;0.60;99.90;;;;;;5106143;28;20075;-76
2021/01/23 03:55:06;;;;;;;7.45;4.65;;;0.60;99.90;;;;;;5100544;28;20214;-76
2021/01/23 03:57:33;;;;;;;8.07;5.40;;;0.50;99.90;;;;;;5106415;28;20043;-76
2021/01/23 04:00:00;;;;;;;6.63;5.22;;;0.60;99.90;;;;;;5107747;28;20554;-76
2021/01/23 04:02:30;;;;;;;6.85;4.97;;;0.60;99.90;;;;;;5105987;28;20032;-77
2021/01/23 04:04:57;;;;;;;6.75;5.00;;;0.60;99.90;;;;;;5085150;28;20043;-77
2021/01/23 04:07:25;;;;;;;8.20;5.68;;;0.60;99.90;;;;;;5104708;28;20131;-77
2021/01/23 04:09:52;;;;;;;8.20;4.95;;;0.50;99.90;;;;;;5107090;28;20122;-76
2021/01/23 04:12:18;;;;;;;7.13;5.43;;;0.50;99.90;;;;;;5086072;28;20051;-77
2021/01/23 04:14:45;;;;;;;8.95;6.20;;;0.60;99.90;;;;;;5111754;27;20124;-76
2021/01/23 04:17:11;;;;;;;7.55;5.13;;;0.60;99.90;;;;;;5100745;28;20132;-77
2021/01/23 04:19:38;;;;;;;11.57;6.25;;;0.50;99.90;;;;;;5101399;28;20040;-77
2021/01/23 04:22:05;;;;;;;7.53;5.53;;;0.50;99.90;;;;;;5091108;28;20127;-77
2021/01/23 04:24:31;;;;;;;9.68;6.43;;;0.60;99.90;;;;;;5101003;28;20116;-77
2021/01/23 04:27:00;;;;;;;5.68;5.05;;;0.60;99.90;;;;;;5090375;28;20134;-77
2021/01/23 04:29:27;;;;;;;9.25;5.50;;;0.60;99.90;;;;;;5105951;28;20147;-77
2021/01/23 04:31:54;;;;;;;13.57;5.60;;;0.60;99.90;;;;;;5106717;28;20618;-77
2021/01/23 04:34:20;;;;;;;8.15;5.78;;;0.60;99.90;;;;;;5105281;28;20096;-77
2021/01/23 04:36:49;;;;;;;6.80;5.13;;;0.50;99.90;;;;;;5087617;28;20075;-76
2021/01/23 04:39:18;;;;;;;7.00;5.53;;;0.50;99.90;;;;;;5085770;28;20056;-77
2021/01/23 04:41:47;;;;;;;7.80;5.85;;;0.60;99.90;;;;;;5103866;28;20478;-77
2021/01/23 04:44:16;;;;;;;9.18;6.47;;;0.60;99.90;;;;;;5105369;28;20127;-77
2021/01/23 04:46:44;;;;;;;9.07;6.55;;;0.50;99.90;;;;;;5104892;28;20102;-77
2021/01/23 04:49:12;;;;;;;9.52;6.85;;;0.50;99.90;;;;;;5088789;28;20476;-77
2021/01/23 04:51:39;;;;;;;14.57;7.53;;;0.50;99.90;;;;;;5106167;28;20056;-77
2021/01/23 04:54:05;;;;;;;13.00;8.82;;;0.50;99.90;;;;;;5106608;28;20075;-78
2021/01/23 04:56:32;;;;;;;12.70;9.10;;;0.50;99.90;;;;;;5105281;28;20538;-77
2021/01/23 04:58:58;;;;;;;12.30;8.98;;;0.50;99.90;;;;;;5104650;28;20104;-77
2021/01/23 05:01:27;;;;;;;13.70;9.80;;;0.50;99.90;;;;;;5084194;28;20557;-77
2021/01/23 05:03:55;;;;;;;12.40;8.85;;;0.50;99.90;;;;;;5102710;28;20054;-77
2021/01/23 05:06:23;;;;;;;13.88;9.15;;;0.40;99.90;;;;;;5097724;28;20086;-76
2021/01/23 05:08:52;;;;;;;16.27;10.85;;;0.40;99.90;;;;;;5092220;28;20097;-77
2021/01/23 05:11:18;;;;;;;12.88;9.25;;;0.40;99.90;;;;;;5091471;28;20134;-78
2021/01/23 05:14:11;;;;;;;13.10;9.65;;;0.40;99.90;;;;;;5085993;28;20048;-79
2021/01/23 05:16:38;;;;;;;11.75;8.68;;;0.50;99.90;;;;;;5095265;28;20133;-77
2021/01/23 05:19:06;;;;;;;12.10;8.95;;;0.40;99.90;;;;;;5088668;28;20083;-77
2021/01/23 05:21:33;;;;;;;10.23;7.80;;;0.40;99.90;;;;;;5086486;28;20068;-78
2021/01/23 05:24:11;;;;;;;10.50;7.97;;;0.40;99.90;;;;;;5096010;28;20096;-77
2021/01/23 05:26:40;;;;;;;10.50;7.25;;;0.40;99.90;;;;;;5089139;28;20043;-79
2021/01/23 05:29:13;;;;;;;12.57;8.55;;;0.40;99.90;;;;;;5084753;28;20522;-77
2021/01/23 05:31:44;;;;;;;14.52;8.85;;;0.40;99.90;;;;;;5089769;28;20531;-79
2021/01/23 05:34:32;;;;;;;11.55;8.45;;;0.40;99.90;;;;;;5086137;28;20048;-79
2021/01/23 05:37:03;;;;;;;10.02;7.93;;;0.30;99.90;;;;;;5084541;28;20722;-79
2021/01/23 05:39:50;;;;;;;13.30;9.50;;;0.30;99.90;;;;;;5087932;28;20109;-80
2021/01/23 05:42:19;;;;;;;12.15;8.55;;;0.30;99.90;;;;;;5102250;28;20365;-80
2021/01/23 05:45:18;;;;;;;12.07;9.18;;;0.30;99.90;;;;;;5105549;28;20933;-79
2021/01/23 05:47:45;;;;;;;9.95;8.43;;;0.30;99.90;;;;;;5049512;28;20149;-78
2021/01/23 05:50:11;;;;;;;12.30;9.40;;;0.30;99.90;;;;;;5086287;28;20060;-79
2021/01/23 05:52:39;;;;;;;13.48;9.73;;;0.30;99.90;;;;;;5087447;28;20096;-80
2021/01/23 05:55:06;;;;;;;13.18;9.95;;;0.20;99.90;;;;;;5103608;28;20194;-78
2021/01/23 05:57:35;;;;;;;14.75;10.20;;;0.20;99.90;;;;;;5104448;28;20118;-81
2021/01/23 06:00:04;;;;;;;14.40;10.02;;;0.20;99.90;;;;;;5104132;28;20050;-81
2021/01/23 06:02:33;;;;;;;16.45;10.88;;;0.20;99.90;;;;;;5104890;28;20465;-81
2021/01/23 06:05:02;;;;;;;13.73;10.02;;;0.20;99.90;;;;;;5103027;28;20055;-81
2021/01/23 06:07:45;;;;;;;14.75;10.45;;;0.20;99.90;;;;;;5103745;28;20043;-82
2021/01/23 06:10:24;;;;;;;13.65;10.10;;;0.20;99.90;;;;;;5102859;28;20146;-81
2021/01/23 06:12:54;;;;;;;14.98;9.20;;;0.20;99.90;;;;;;5101323;28;20654;-79
2021/01/23 06:15:39;;;;;;;12.13;9.45;;;0.20;99.90;;;;;;5097566;28;20142;-79
2021/01/23 06:18:08;;;;;;;13.70;8.70;;;0.20;99.90;;;;;;5105024;28;20051;-81
2021/01/23 06:20:55;;;;;;;13.90;9.15;;;0.20;99.90;;;;;;5103896;28;20070;-81
2021/01/23 06:23:22;;;;;;;12.45;8.32;;;0.20;99.90;;;;;;5095954;28;20135;-84
2021/01/23 06:25:51;;;;;;;9.80;7.35;;;0.20;99.90;;;;;;5104461;28;20067;-81
2021/01/23 06:28:38;;;;;;;17.52;8.00;;;0.20;99.90;;;;;;5104593;28;20132;-84
2021/01/23 06:31:22;;;;;;;11.52;8.52;;;0.30;99.90;;;;;;5103240;28;20047;-81
2021/01/23 06:33:49;;;;;;;11.07;7.95;;;0.30;99.90;;;;;;5095329;28;20051;-82
2021/01/23 06:36:16;;;;;;;10.13;7.95;;;0.30;99.90;;;;;;5106813;28;20075;-83
2021/01/23 06:38:59;;;;;;;13.25;7.95;;;0.30;99.90;;;;;;5102050;28;20080;-82
2021/01/23 06:41:26;;;;;;;14.45;8.98;;;0.30;99.90;;;;;;5088362;28;20537;-83
2021/01/23 06:44:07;;;;;;;13.88;8.70;;;0.20;99.90;;;;;;5094237;28;20068;-82
2021/01/23 06:46:43;;;;;;;14.60;9.13;;;0.20;99.90;;;;;;5101008;28;20146;-83
2021/01/23 06:49:14;;;;;;;13.98;8.25;;;0.20;99.90;;;;;;5102906;28;20047;-81
2021/01/23 06:51:44;;;;;;;12.75;8.75;;;0.20;99.90;;;;;;5094401;28;20434;-80
2021/01/23 06:54:20;;;;;;;12.45;8.88;;;0.20;99.90;;;;;;5106686;28;20193;-81
2021/01/23 06:56:48;;;;;;;13.60;9.50;;;0.20;99.90;;;;;;5094291;28;20629;-81
2021/01/23 06:59:23;;;;;;;15.95;10.30;;;0.20;99.90;;;;;;5108669;28;20051;-81
2021/01/23 07:02:09;;;;;;;13.32;9.55;;;0.20;99.90;;;;;;5108444;28;20047;-80
2021/01/23 07:04:47;;;;;;;13.85;9.77;;;0.20;99.90;;;;;;5102106;28;20122;-81
2021/01/23 07:07:18;;;;;;;13.88;9.70;;;0.20;99.90;;;;;;5108624;28;20131;-78
2021/01/23 07:09:45;;;;;;;33.72;15.95;;;0.20;99.90;;;;;;5105416;28;20074;-78
2021/01/23 07:12:33;;;;;;;26.85;13.98;;;0.20;99.90;;;;;;5091243;28;20044;-77
2021/01/23 07:15:02;;;;;;;15.50;9.23;;;0.20;99.90;;;;;;5091775;28;20169;-77
2021/01/23 07:17:32;;;;;;;14.60;9.45;;;0.30;99.90;;;;;;5089616;28;20046;-77
2021/01/23 07:20:03;;;;;;;14.98;9.68;;;0.30;99.90;;;;;;5091393;28;20159;-76
2021/01/23 07:22:30;;;;;;;11.85;9.25;;;0.20;99.90;;;;;;5091816;28;20043;-76
2021/01/23 07:24:58;;;;;;;16.42;10.23;;;0.20;99.90;;;;;;5089618;28;20079;-76
2021/01/23 07:27:25;;;;;;;16.67;9.38;;;0.20;99.90;;;;;;5093957;28;20474;-77
2021/01/23 07:29:52;;;;;;;16.08;9.20;;;0.20;99.90;;;;;;5090083;28;20036;-76
2021/01/23 07:32:19;;;;;;;15.35;10.15;;;0.20;99.90;;;;;;5087705;28;20399;-77
2021/01/23 07:34:55;;;;;;;16.67;11.25;;;0.20;99.90;;;;;;5090090;28;20067;-76
2021/01/23 07:37:45;;;;;;;16.73;10.55;;;0.30;99.90;;;;;;5090262;28;20052;-77
2021/01/23 07:40:22;;;;;;;16.25;11.02;;;0.30;99.90;;;;;;5093033;28;20130;-76
2021/01/23 07:42:49;;;;;;;18.02;9.95;;;0.30;99.90;;;;;;5086663;28;20048;-76
2021/01/23 07:45:17;;;;;;;15.90;10.65;;;0.30;99.90;;;;;;5090764;28;20417;-76
2021/01/23 07:48:04;;;;;;;15.18;10.15;;;0.30;99.90;;;;;;5088393;28;20055;-75
2021/01/23 07:50:39;;;;;;;13.23;9.52;;;0.40;99.90;;;;;;5092212;28;20154;-76
2021/01/23 07:53:25;;;;;;;14.27;9.93;;;0.40;99.90;;;;;;5094318;28;20187;-77
2021/01/23 07:55:55;;;;;;;13.90;9.85;;;0.50;99.90;;;;;;5070584;28;20036;-76
2021/01/23 07:58:21;;;;;;;13.88;9.88;;;0.50;99.90;;;;;;5086371;28;20633;-76
2021/01/23 08:00:50;;;;;;;13.55;10.02;;;0.50;99.90;;;;;;5089498;28;20052;-77
2021/01/23 08:03:16;;;;;;;14.15;9.35;;;0.50;99.90;;;;;;5087783;28;20138;-77
2021/01/23 08:05:47;;;;;;;16.38;8.95;;;0.50;99.90;;;;;;5089944;28;20142;-76
2021/01/23 08:08:31;;;;;;;16.60;10.23;;;0.50;99.90;;;;;;5090717;28;20043;-77
2021/01/23 08:11:03;;;;;;;14.30;9.88;;;0.60;99.90;;;;;;5092070;28;20067;-79
2021/01/23 08:13:34;;;;;;;17.65;10.77;;;0.60;99.90;;;;;;5090751;28;20063;-77
2021/01/23 08:16:14;;;;;;;18.13;11.75;;;0.60;99.90;;;;;;5092552;28;20055;-77
2021/01/23 08:18:43;;;;;;;18.98;10.43;;;0.60;99.90;;;;;;5085786;28;20058;-77
2021/01/23 08:21:19;;;;;;;17.45;10.63;;;0.70;99.90;;;;;;5092629;28;20059;-78
2021/01/23 08:23:50;;;;;;;15.18;10.80;;;0.70;99.90;;;;;;5088319;28;20040;-78
2021/01/23 08:26:20;;;;;;;15.13;10.18;;;0.80;99.90;;;;;;5092818;28;20607;-78
2021/01/23 08:28:48;;;;;;;15.45;10.95;;;0.90;99.90;;;;;;5092436;28;20042;-77
2021/01/23 08:31:25;;;;;;;18.15;11.50;;;0.90;99.90;;;;;;5088961;28;20132;-76
2021/01/23 08:33:58;;;;;;;18.45;11.75;;;0.90;99.90;;;;;;5093989;28;20044;-76
2021/01/23 08:36:31;;;;;;;18.35;10.23;;;1.00;99.90;;;;;;5089252;28;20732;-77
2021/01/23 08:39:10;;;;;;;16.35;9.68;;;1.00;99.90;;;;;;5089911;28;20177;-78
2021/01/23 08:41:36;;;;;;;17.02;10.70;;;1.00;99.90;;;;;;5093355;28;20078;-77
2021/01/23 08:44:03;;;;;;;16.90;9.90;;;1.10;99.90;;;;;;5089413;27;20040;-77
2021/01/23 08:46:29;;;;;;;13.40;8.70;;;1.10;99.90;;;;;;5091557;28;20059;-78
2021/01/23 08:48:56;;;;;;;14.43;9.32;;;1.10;99.90;;;;;;5095739;28;20044;-77
2021/01/23 08:51:24;;;;;;;12.05;8.57;;;1.10;99.90;;;;;;5092881;28;20125;-77
2021/01/23 08:53:50;;;;;;;12.55;8.93;;;1.20;99.90;;;;;;5099327;28;20047;-76
2021/01/23 08:56:17;;;;;;;13.32;8.73;;;1.20;99.90;;;;;;5098682;28;20072;-78
2021/01/23 08:58:44;;;;;;;13.07;8.77;;;1.20;99.90;;;;;;5102502;28;20139;-76
2021/01/23 09:01:11;;;;;;;11.65;8.70;;;1.30;99.90;;;;;;5105547;28;20641;-75
2021/01/23 09:03:40;;;;;;;14.60;8.60;;;1.30;99.90;;;;;;5101897;28;20134;-75
2021/01/23 09:06:08;;;;;;;10.05;7.28;;;1.40;99.90;;;;;;5098314;28;20607;-75
2021/01/23 09:08:37;;;;;;;9.23;6.90;;;1.50;99.90;;;;;;5097694;28;20063;-74
2021/01/23 09:11:06;;;;;;;10.32;6.57;;;1.60;99.90;;;;;;5099407;28;21389;-74
2021/01/23 09:13:34;;;;;;;10.52;6.65;;;1.60;99.90;;;;;;5104025;28;20833;-74
2021/01/23 09:16:03;;;;;;;8.32;6.32;;;1.70;99.90;;;;;;5084732;28;20074;-75
2021/01/23 09:18:30;;;;;;;7.45;6.25;;;1.80;99.90;;;;;;5101720;28;20039;-75
2021/01/23 09:20:56;;;;;;;10.35;6.05;;;1.80;99.90;;;;;;5102377;28;20040;-73
2021/01/23 09:23:23;;;;;;;8.25;5.85;;;1.90;99.90;;;;;;5087343;28;20091;-75
2021/01/23 09:25:51;;;;;;;10.30;6.53;;;1.90;99.90;;;;;;5103286;28;20047;-73
2021/01/23 09:28:17;;;;;;;10.32;5.68;;;2.00;99.90;;;;;;5105589;28;20086;-74
2021/01/23 09:30:47;;;;;;;10.15;5.25;;;2.20;99.90;;;;;;5104009;28;20047;-74
2021/01/23 09:33:15;;;;;;;7.65;5.75;;;2.20;99.90;;;;;;5098962;28;20517;-76
2021/01/23 09:35:45;;;;;;;11.98;4.78;;;2.40;99.90;;;;;;5091609;28;20092;-74
2021/01/23 09:38:11;;;;;;;5.63;5.13;;;2.50;99.90;;;;;;5093921;28;20664;-74
2021/01/23 09:40:42;;;;;;;7.60;5.35;;;2.50;99.90;;;;;;5095622;28;20592;-75
2021/01/23 09:43:09;;;;;;;8.20;5.38;;;2.50;99.90;;;;;;5083237;28;20117;-75
2021/01/23 09:45:41;;;;;;;5.85;4.60;;;2.50;99.90;;;;;;5094016;28;20043;-74
2021/01/23 09:48:08;;;;;;;7.57;4.88;;;2.60;99.90;;;;;;5084756;28;20047;-74
2021/01/23 09:50:44;;;;;;;7.55;4.88;;;2.50;99.90;;;;;;5098325;28;20131;-74
2021/01/23 09:53:13;;;;;;;5.90;4.93;;;2.50;99.90;;;;;;5102172;28;20052;-74
2021/01/23 09:55:41;;;;;;;8.30;5.20;;;2.60;99.90;;;;;;5096432;28;20051;-74
2021/01/23 09:58:13;;;;;;;6.22;4.40;;;2.70;99.90;;;;;;5089061;28;20474;-74
2021/01/23 10:00:40;;;;;;;7.45;5.00;;;2.60;99.90;;;;;;5091512;28;20124;-73
2021/01/23 10:03:06;;;;;;;5.10;4.13;;;2.70;99.90;;;;;;5093182;28;20085;-73
2021/01/23 10:05:33;;;;;;;4.88;4.38;;;2.80;99.90;;;;;;5103976;28;20075;-73
2021/01/23 10:08:00;;;;;;;5.20;4.25;;;2.70;99.90;;;;;;5089272;28;20036;-73
2021/01/23 10:10:28;;;;;;;6.65;4.70;;;2.70;99.90;;;;;;5100123;28;20171;-74
2021/01/23 10:12:54;;;;;;;8.98;4.82;;;2.70;99.90;;;;;;5103563;28;20143;-74
2021/01/23 10:15:24;;;;;;;6.47;4.38;;;2.70;99.90;;;;;;5103727;28;20043;-75
2021/01/23 10:17:52;;;;;;;6.85;4.30;;;2.70;99.90;;;;;;5105350;28;20036;-75
2021/01/23 10:20:18;;;;;;;8.68;4.13;;;2.70;99.90;;;;;;5102795;28;20051;-74
2021/01/23 10:22:45;;;;;;;5.47;4.40;;;2.90;99.90;;;;;;5088693;27;20059;-72
2021/01/23 10:25:12;;;;;;;6.80;4.60;;;3.00;99.90;;;;;;5100625;28;20052;-73
2021/01/23 10:27:39;;;;;;;5.85;4.75;;;3.00;99.90;;;;;;5088952;28;20125;-73
2021/01/23 10:30:06;;;;;;;8.90;4.80;;;3.10;99.90;;;;;;5098716;28;20048;-73
2021/01/23 10:32:33;;;;;;;6.53;4.82;;;3.10;99.90;;;;;;5100018;28;20181;-74
2021/01/23 10:35:02;;;;;;;7.82;5.85;;;3.30;99.90;;;;;;5103313;28;20061;-73
2021/01/23 10:37:30;;;;;;;8.68;4.65;;;3.40;99.90;;;;;;5103553;28;20433;-73
2021/01/23 10:39:59;;;;;;;5.50;4.20;;;3.80;99.90;;;;;;5101967;28;20059;-73
2021/01/23 10:42:26;;;;;;;5.22;4.13;;;4.20;99.90;;;;;;5087148;28;20127;-74
2021/01/23 10:44:54;;;;;;;4.47;3.65;;;4.50;99.90;;;;;;5098568;28;20083;-74
2021/01/23 10:47:21;;;;;;;5.18;3.75;;;4.90;99.90;;;;;;5100440;28;20076;-74
2021/01/23 10:49:47;;;;;;;5.45;3.83;;;4.80;99.90;;;;;;5085414;28;20736;-74
2021/01/23 10:52:14;;;;;;;4.15;3.75;;;5.00;99.90;;;;;;5099367;28;20128;-73
2021/01/23 10:54:40;;;;;;;5.55;3.33;;;5.10;99.90;;;;;;5086203;28;20075;-74
2021/01/23 10:57:06;;;;;;;6.30;3.35;;;5.30;99.90;;;;;;5086295;28;20109;-74
2021/01/23 10:59:33;;;;;;;5.30;3.33;;;5.30;99.90;;;;;;5088070;28;20040;-74
2021/01/23 11:02:00;;;;;;;3.70;3.05;;;5.50;99.90;;;;;;5087928;28;20068;-75
2021/01/23 11:04:28;;;;;;;7.22;3.58;;;5.80;99.90;;;;;;5089503;28;20635;-75
2021/01/23 11:06:58;;;;;;;6.03;3.40;;;5.50;99.90;;;;;;5093578;28;20109;-75
2021/01/23 11:09:25;;;;;;;6.20;3.90;;;5.40;99.90;;;;;;5091840;28;20113;-75
2021/01/23 11:11:51;;;;;;;4.90;3.67;;;5.30;99.90;;;;;;5078341;28;20403;-75
2021/01/23 11:14:18;;;;;;;6.63;3.92;;;5.70;99.90;;;;;;5086543;28;20052;-75
2021/01/23 11:16:44;;;;;;;5.47;3.63;;;6.00;99.90;;;;;;5096801;28;20445;-75
2021/01/23 11:19:12;;;;;;;7.07;4.18;;;5.90;99.90;;;;;;5105034;28;20539;-75
2021/01/23 11:21:43;;;;;;;3.95;3.55;;;6.20;99.90;;;;;;5099268;28;20044;-75
2021/01/23 11:24:11;;;;;;;3.63;2.83;;;6.80;99.90;;;;;;5102300;28;20149;-74
2021/01/23 11:26:37;;;;;;;3.30;3.00;;;7.40;99.90;;;;;;5106508;28;20052;-74
2021/01/23 11:29:05;;;;;;;6.25;3.38;;;7.30;99.90;;;;;;5108103;28;20036;-74
2021/01/23 11:31:34;;;;;;;6.43;3.50;;;7.40;99.90;;;;;;5091413;28;20044;-74
2021/01/23 11:34:03;;;;;;;3.65;3.13;;;6.90;99.90;;;;;;5102029;28;20047;-74
2021/01/23 11:36:31;;;;;;;8.18;3.40;;;6.50;99.90;;;;;;5102683;28;20109;-75
2021/01/23 11:38:59;;;;;;;8.45;3.60;;;7.10;99.90;;;;;;5104321;28;20101;-74
2021/01/23 11:41:28;;;;;;;5.82;3.67;;;7.30;99.90;;;;;;5105984;28;20132;-75
2021/01/23 11:43:54;;;;;;;4.68;3.08;;;7.50;99.90;;;;;;5106125;28;20043;-74
2021/01/23 11:46:21;;;;;;;6.97;4.05;;;7.10;99.90;;;;;;5105559;28;20134;-74
2021/01/23 11:48:50;;;;;;;6.45;3.60;;;7.10;99.90;;;;;;5107732;27;20130;-74
2021/01/23 11:51:17;;;;;;;8.80;3.30;;;7.40;99.90;;;;;;5094599;28;20082;-74
2021/01/23 11:53:43;;;;;;;8.63;3.72;;;7.00;99.90;;;;;;5103882;28;20108;-73
2021/01/23 11:56:10;;;;;;;7.32;4.15;;;6.30;99.90;;;;;;5105869;28;20093;-75
2021/01/23 11:58:37;;;;;;;9.15;4.40;;;5.60;99.90;;;;;;5107957;28;20242;-74
2021/01/23 12:01:05;;;;;;;8.25;4.65;;;5.10;99.90;;;;;;5102524;28;20625;-74
2021/01/23 12:03:32;;;;;;;8.30;4.95;;;5.10;99.90;;;;;;5088543;28;20052;-74
2021/01/23 12:06:00;;;;;;;10.65;4.97;;;5.40;99.90;;;;;;5105312;28;20121;-74
2021/01/23 12:08:29;;;;;;;11.43;6.10;;;5.60;99.90;;;;;;5105945;28;20096;-74
2021/01/23 12:10:59;;;;;;;8.07;5.00;;;5.60;99.90;;;;;;5099589;28;20055;-74
2021/01/23 12:13:25;;;;;;;6.63;4.63;;;5.60;99.90;;;;;;5107130;28;20474;-75
2021/01/23 12:15:52;;;;;;;7.03;4.75;;;5.90;99.90;;;;;;5105451;28;20036;-75
2021/01/23 12:18:19;;;;;;;8.10;4.60;;;6.40;99.90;;;;;;5107166;28;20069;-75
2021/01/23 12:20:46;;;;;;;7.53;4.88;;;6.20;99.90;;;;;;5086992;28;20093;-74
2021/01/23 12:23:16;;;;;;;7.07;4.68;;;6.20;99.90;;;;;;5092753;28;20090;-74
2021/01/23 12:25:43;;;;;;;5.00;4.20;;;6.10;99.90;;;;;;5104626;28;20479;-74
2021/01/23 12:28:10;;;;;;;8.13;4.93;;;6.00;99.90;;;;;;5106384;28;20043;-74
2021/01/23 12:30:41;;;;;;;5.68;5.05;;;5.50;99.90;;;;;;5104205;28;20047;-74
2021/01/23 12:33:09;;;;;;;6.03;4.90;;;5.30;99.90;;;;;;5107269;28;20043;-74
2021/01/23 12:35:36;;;;;;;5.80;4.55;;;5.10;99.90;;;;;;5106339;28;20119;-74
2021/01/23 12:38:03;;;;;;;7.63;5.55;;;5.00;99.90;;;;;;5105697;28;20127;-75
2021/01/23 12:40:33;;;;;;;6.95;5.35;;;5.00;99.90;;;;;;5105159;28;20405;-75
2021/01/23 12:43:00;;;;;;;7.15;5.38;;;4.80;99.90;;;;;;5105353;28;20096;-74
2021/01/23 12:45:26;;;;;;;8.18;5.35;;;4.80;99.90;;;;;;5105551;28;20060;-75
2021/01/23 12:47:53;;;;;;;9.43;5.78;;;5.00;99.90;;;;;;5104980;28;20122;-75
2021/01/23 12:50:22;;;;;;;9.45;5.30;;;5.10;99.90;;;;;;5104269;28;20134;-75
2021/01/23 12:52:49;;;;;;;6.93;4.95;;;5.10;99.90;;;;;;5106793;28;20047;-75
2021/01/23 12:55:18;;;;;;;8.02;5.20;;;5.20;99.90;;;;;;5104393;28;20062;-75
2021/01/23 12:57:44;;;;;;;8.18;5.00;;;5.50;99.90;;;;;;5104822;28;20047;-75
2021/01/23 13:00:15;;;;;;;8.73;4.70;;;5.90;99.90;;;;;;5101674;28;20188;-76
2021/01/23 13:02:42;;;;;;;7.72;4.75;;;6.80;99.90;;;;;;5093128;28;20104;-75
2021/01/23 13:05:13;;;;;;;6.43;4.30;;;7.20;99.90;;;;;;5104286;28;20075;-74
2021/01/23 13:07:43;;;;;;;4.65;4.03;;;7.50;99.90;;;;;;5104551;28;20138;-75